Time;durP1;ratioP1;P1;durP2;ratioP2;P2;SDS_P1;SDS_P2;PMS_P1;PMS_P2;Temp;Humidity;BMP_temperature;BMP_pressure;BME280_temperature;BME280_humidity;BME280_pressure;Samples;Min_cycle;Max_cycle;Signal;HPM_P1;HPM_P2
2024/03/07 00:01:37;;;;;;;6.68;3.88;;;;;;;-1.64;100.00;103171.91;5034658;28;20037;-73
2024/03/07 00:04:02;;;;;;;8.13;3.78;;;;;;;-1.63;100.00;103166.53;5001712;28;20037;-72
2024/03/07 00:06:28;;;;;;;7.47;3.78;;;;;;;-1.58;100.00;103174.31;5035861;28;20051;-73
2024/03/07 00:08:54;;;;;;;9.00;3.90;;;;;;;-1.56;100.00;103181.22;5021358;28;20128;-72
2024/03/07 00:11:21;;;;;;;9.35;4.13;;;;;;;-1.64;100.00;103164.84;5019638;28;20030;-73
2024/03/07 00:13:46;;;;;;;7.40;3.83;;;;;;;-1.54;100.00;103175.88;5016960;28;20036;-77
2024/03/07 00:16:12;;;;;;;8.55;3.70;;;;;;;-1.59;100.00;103167.28;5034375;28;20033;-73
2024/03/07 00:18:38;;;;;;;11.30;3.90;;;;;;;-1.63;100.00;103170.97;5035298;28;20032;-73
2024/03/07 00:21:04;;;;;;;7.05;3.88;;;;;;;-1.59;100.00;103170.81;5018989;28;20029;-75
2024/03/07 00:23:31;;;;;;;10.30;4.13;;;;;;;-1.78;100.00;103139.00;5039659;28;20401;-73
2024/03/07 00:25:57;;;;;;;7.78;3.72;;;;;;;-1.60;100.00;103171.69;5039883;28;20032;-73
2024/03/07 00:28:27;;;;;;;7.32;3.70;;;;;;;-1.60;100.00;103179.63;5038602;28;20400;-73
2024/03/07 00:30:52;;;;;;;6.13;3.40;;;;;;;-1.58;100.00;103177.78;5038693;28;20025;-75
2024/03/07 00:33:21;;;;;;;7.53;4.05;;;;;;;-1.62;100.00;103175.31;5022186;28;20029;-76
2024/03/07 00:35:46;;;;;;;7.18;3.72;;;;;;;-1.79;100.00;103144.31;5039301;28;20025;-77
2024/03/07 00:38:12;;;;;;;7.43;3.65;;;;;;;-1.64;100.00;103172.75;5006086;28;20164;-74
2024/03/07 00:40:37;;;;;;;7.20;3.78;;;;;;;-1.67;100.00;103165.81;5038322;28;20381;-74
2024/03/07 00:43:03;;;;;;;6.30;3.78;;;;;;;-1.71;100.00;103160.72;5038754;28;20026;-74
2024/03/07 00:45:29;;;;;;;10.80;4.28;;;;;;;-1.58;100.00;103184.84;5040075;28;20026;-74
2024/03/07 00:47:54;;;;;;;10.65;3.88;;;;;;;-1.60;100.00;103178.78;5023475;28;20029;-74
2024/03/07 00:50:21;;;;;;;7.00;3.83;;;;;;;-1.59;100.00;103185.75;5023747;28;20038;-73
2024/03/07 00:52:48;;;;;;;8.85;4.25;;;;;;;-1.64;100.00;103174.53;5039970;28;20124;-74
2024/03/07 00:55:14;;;;;;;10.20;4.25;;;;;;;-1.67;100.00;103178.16;5023034;28;20108;-73
2024/03/07 00:57:40;;;;;;;9.07;3.90;;;;;;;-1.67;100.00;103178.16;5039868;28;20036;-74
2024/03/07 01:00:11;;;;;;;7.70;4.28;;;;;;;-1.69;100.00;103177.34;5026284;28;20033;-78
2024/03/07 01:02:38;;;;;;;8.90;4.25;;;;;;;-1.76;100.00;103167.97;5041717;28;20029;-75
2024/03/07 01:05:09;;;;;;;8.35;4.10;;;;;;;-1.72;100.00;103182.78;5037652;28;20025;-72
2024/03/07 01:07:36;;;;;;;6.90;3.85;;;;;;;-1.74;100.00;103180.19;5040870;28;20060;-74
2024/03/07 01:10:03;;;;;;;10.23;4.10;;;;;;;-1.77;100.00;103168.88;5040284;28;20067;-72
2024/03/07 01:12:30;;;;;;;10.32;3.83;;;;;;;-1.73;100.00;103178.41;5040745;28;20031;-72
2024/03/07 01:14:57;;;;;;;10.30;3.90;;;;;;;-1.74;100.00;103174.03;5039495;28;20034;-73
2024/03/07 01:17:23;;;;;;;7.22;3.80;;;;;;;-1.76;100.00;103174.09;5040217;28;20056;-73
2024/03/07 01:19:49;;;;;;;9.32;4.10;;;;;;;-1.74;100.00;103180.19;5040788;28;20112;-75
2024/03/07 01:22:15;;;;;;;7.00;3.70;;;;;;;-1.77;100.00;103177.66;5039006;28;20519;-73
2024/03/07 01:24:40;;;;;;;9.80;3.95;;;;;;;-1.81;100.00;103175.22;5041075;28;20040;-73
2024/03/07 01:27:06;;;;;;;11.95;4.03;;;;;;;-1.87;100.00;103178.09;5040081;28;20045;-76
2024/03/07 01:29:31;;;;;;;7.75;3.67;;;;;;;-2.29;100.00;103113.72;5039448;28;20029;-72
2024/03/07 01:31:57;;;;;;;8.18;3.95;;;;;;;-1.86;100.00;103175.38;5040829;28;20021;-72
2024/03/07 01:34:24;;;;;;;7.45;3.95;;;;;;;-1.94;100.00;103164.28;5039746;28;20729;-72
2024/03/07 01:36:49;;;;;;;7.00;4.13;;;;;;;-1.87;100.00;103178.09;5005955;28;20502;-73
2024/03/07 01:39:15;;;;;;;8.98;3.97;;;;;;;-1.92;100.00;103176.50;5038589;28;20117;-72
2024/03/07 01:41:41;;;;;;;7.35;3.60;;;;;;;-1.97;100.00;103167.88;5040252;28;20401;-75
2024/03/07 01:44:08;;;;;;;6.32;3.97;;;;;;;-1.94;100.00;103164.28;5038185;28;20087;-72
2024/03/07 01:46:33;;;;;;;9.57;4.35;;;;;;;-2.00;100.00;103164.50;5021571;28;20040;-75
2024/03/07 01:48:59;;;;;;;6.90;4.43;;;;;;;-1.98;100.00;103160.91;5005304;28;20033;-72
2024/03/07 01:51:25;;;;;;;8.93;4.00;;;;;;;-2.03;100.00;103165.47;5021705;28;20075;-74
2024/03/07 01:53:52;;;;;;;7.75;4.20;;;;;;;-2.04;100.00;103168.19;5038016;28;20029;-73
2024/03/07 01:56:19;;;;;;;9.77;4.43;;;;;;;-2.00;100.00;103170.63;5023056;28;20109;-73
2024/03/07 01:58:47;;;;;;;8.68;4.25;;;;;;;-2.25;100.00;103130.28;5039901;28;20054;-71
2024/03/07 02:01:15;;;;;;;9.85;4.35;;;;;;;-2.21;100.00;103142.47;5039908;28;20030;-72
2024/03/07 02:03:42;;;;;;;8.23;4.03;;;;;;;-2.08;100.00;103175.38;5039365;28;20033;-73
2024/03/07 02:06:08;;;;;;;8.02;3.88;;;;;;;-2.07;100.00;103163.03;5040100;28;20029;-73
2024/03/07 02:08:34;;;;;;;8.40;4.47;;;;;;;-2.27;100.00;103137.41;5038386;28;20504;-73
2024/03/07 02:11:00;;;;;;;11.98;4.22;;;;;;;-2.11;100.00;103167.56;5039772;28;20026;-73
2024/03/07 02:13:26;;;;;;;8.77;3.90;;;;;;;-2.14;100.00;103159.78;5039306;28;20044;-74
2024/03/07 02:15:53;;;;;;;12.85;4.43;;;;;;;-2.08;100.00;103158.69;5037673;28;20022;-74
2024/03/07 02:18:20;;;;;;;8.63;3.95;;;;;;;-2.23;100.00;103141.66;5038194;28;20036;-73
2024/03/07 02:20:48;;;;;;;9.38;4.30;;;;;;;-2.12;100.00;103155.28;5039124;28;20057;-73
2024/03/07 02:23:15;;;;;;;10.93;4.30;;;;;;;-2.09;100.00;103167.50;5021822;28;20036;-73
2024/03/07 02:25:40;;;;;;;7.55;3.88;;;;;;;-2.25;100.00;103139.09;5039158;28;20087;-73
2024/03/07 02:28:06;;;;;;;8.98;4.55;;;;;;;-2.11;100.00;103156.16;5038875;28;20544;-73
2024/03/07 02:30:32;;;;;;;6.85;4.00;;;;;;;-2.15;100.00;103152.78;5037196;28;20045;-73
2024/03/07 02:33:06;;;;;;;9.80;4.60;;;;;;;-2.13;100.00;103158.84;5037607;28;20040;-74
2024/03/07 02:35:35;;;;;;;9.80;4.60;;;;;;;-2.20;100.00;103141.53;5036744;28;20329;-75
2024/03/07 02:38:08;;;;;;;9.57;4.43;;;;;;;-2.15;100.00;103165.97;5036848;28;20053;-76
2024/03/07 02:40:34;;;;;;;12.00;4.40;;;;;;;-2.23;100.00;103150.41;5037270;28;20044;-74
2024/03/07 02:42:59;;;;;;;7.28;4.18;;;;;;;-2.28;100.00;103147.13;5038139;28;20391;-72
2024/03/07 02:45:25;;;;;;;7.90;4.47;;;;;;;-2.20;100.00;103165.28;5037260;28;20021;-72
2024/03/07 02:47:51;;;;;;;10.57;4.28;;;;;;;-2.25;100.00;103152.28;5037849;28;20029;-73
2024/03/07 02:50:17;;;;;;;12.15;4.60;;;;;;;-2.26;100.00;103157.59;5037890;28;20492;-72
2024/03/07 02:52:42;;;;;;;7.10;4.43;;;;;;;-2.46;100.00;103122.28;5038613;28;20075;-73
2024/03/07 02:55:10;;;;;;;9.35;4.78;;;;;;;-2.28;100.00;103156.81;5037099;28;20116;-74
2024/03/07 02:57:36;;;;;;;9.60;4.30;;;;;;;-2.46;100.00;103131.97;5038526;28;20089;-72
2024/03/07 03:00:02;;;;;;;9.00;4.10;;;;;;;-2.37;100.00;103145.66;5021031;28;20061;-73
2024/03/07 03:02:28;;;;;;;9.80;4.50;;;;;;;-2.57;100.00;103111.28;5038375;28;20108;-75
2024/03/07 03:04:54;;;;;;;9.82;5.13;;;;;;;-2.40;100.00;103143.16;5038178;28;20061;-75
2024/03/07 03:07:20;;;;;;;9.23;4.57;;;;;;;-2.41;100.00;103145.84;5021273;28;20037;-73
2024/03/07 03:09:46;;;;;;;12.93;5.35;;;;;;;-2.53;100.00;103133.13;5037069;28;20558;-72
2024/03/07 03:12:11;;;;;;;9.65;5.18;;;;;;;-2.49;100.00;103143.47;5036811;28;20029;-73
2024/03/07 03:14:37;;;;;;;9.60;4.45;;;;;;;-2.65;100.00;103113.34;5037696;28;20040;-73
2024/03/07 03:17:03;;;;;;;6.97;4.40;;;;;;;-2.47;100.00;103143.44;5037152;28;20071;-72
2024/03/07 03:19:28;;;;;;;9.40;4.65;;;;;;;-2.62;100.00;103121.13;5037310;28;20029;-72
2024/03/07 03:21:55;;;;;;;8.43;4.40;;;;;;;-2.48;100.00;103142.59;5038192;28;20052;-73
2024/03/07 03:24:21;;;;;;;14.00;4.63;;;;;;;-2.50;100.00;103148.81;5036549;28;20148;-74
2024/03/07 03:26:47;;;;;;;8.85;4.68;;;;;;;-2.51;100.00;103141.84;5037050;28;20025;-73
2024/03/07 03:29:13;;;;;;;8.32;4.38;;;;;;;-2.54;100.00;103137.53;5038795;28;20032;-74
2024/03/07 03:31:39;;;;;;;7.90;4.50;;;;;;;-2.57;100.00;103124.47;5038199;28;20067;-72
2024/03/07 03:34:05;;;;;;;11.93;4.57;;;;;;;-2.60;100.00;103121.94;5038695;28;20112;-72
2024/03/07 03:36:30;;;;;;;7.93;4.20;;;;;;;-2.72;100.00;103107.44;5038155;28;20060;-74
2024/03/07 03:38:56;;;;;;;8.63;4.40;;;;;;;-2.75;100.00;103109.31;5037115;28;20531;-73
2024/03/07 03:41:22;;;;;;;10.13;4.43;;;;;;;-2.60;100.00;103143.88;5037005;28;20030;-72
2024/03/07 03:43:48;;;;;;;10.77;4.88;;;;;;;-2.60;100.00;103140.41;5036736;28;20548;-72
2024/03/07 03:46:14;;;;;;;8.30;4.80;;;;;;;-2.62;100.00;103135.19;5038152;28;20053;-73
2024/03/07 03:48:42;;;;;;;9.95;4.50;;;;;;;-2.62;100.00;103135.19;5037343;28;20029;-72
2024/03/07 03:51:08;;;;;;;14.80;5.50;;;;;;;-2.83;100.00;103102.56;5036111;28;20396;-73
2024/03/07 03:53:34;;;;;;;9.35;5.00;;;;;;;-2.65;100.00;103137.94;5037096;28;20049;-73
2024/03/07 03:56:00;;;;;;;10.30;4.97;;;;;;;-2.65;100.00;103126.50;5037005;28;20033;-73
2024/03/07 03:58:27;;;;;;;7.13;4.38;;;;;;;-2.66;100.00;103128.28;5035915;28;20068;-73
2024/03/07 04:00:53;;;;;;;7.35;4.70;;;;;;;-2.68;100.00;103140.69;5035230;28;20037;-74
2024/03/07 04:03:19;;;;;;;10.57;5.28;;;;;;;-2.73;100.00;103131.22;5018858;28;20071;-75
2024/03/07 04:05:44;;;;;;;9.15;4.68;;;;;;;-2.69;100.00;103138.09;5035776;28;20036;-72
2024/03/07 04:08:09;;;;;;;8.82;5.03;;;;;;;-2.70;100.00;103129.34;5036675;28;20182;-73
2024/03/07 04:10:35;;;;;;;8.55;5.10;;;;;;;-2.93;100.00;103103.81;5034755;28;20037;-73
2024/03/07 04:13:00;;;;;;;8.80;4.95;;;;;;;-2.78;100.00;103131.41;5035624;28;20053;-73
2024/03/07 04:15:26;;;;;;;9.85;5.15;;;;;;;-2.77;100.00;103134.88;5019552;28;20026;-73
2024/03/07 04:17:52;;;;;;;7.97;4.70;;;;;;;-2.80;100.00;103130.59;5035900;28;20037;-73
2024/03/07 04:20:18;;;;;;;10.52;5.50;;;;;;;-2.97;100.00;103106.63;5034566;28;20120;-73
2024/03/07 04:22:44;;;;;;;12.43;5.45;;;;;;;-2.87;100.00;103137.00;5036197;28;20108;-72
2024/03/07 04:25:12;;;;;;;10.43;4.93;;;;;;;-2.91;100.00;103133.59;5035853;28;20086;-72
2024/03/07 04:27:39;;;;;;;10.60;4.72;;;;;;;-2.92;100.00;103131.00;5035463;28;20121;-72
2024/03/07 04:30:07;;;;;;;6.35;4.38;;;;;;;-2.94;100.00;103128.44;5019749;28;20049;-72
2024/03/07 04:32:34;;;;;;;10.90;4.82;;;;;;;-2.97;100.00;103135.59;5003988;28;20036;-72
2024/03/07 04:35:00;;;;;;;12.05;5.60;;;;;;;-2.99;100.00;103126.88;5019537;28;20053;-72
2024/03/07 04:37:27;;;;;;;10.65;5.78;;;;;;;-3.08;100.00;103114.88;5037337;28;20067;-72
2024/03/07 04:39:53;;;;;;;11.10;6.07;;;;;;;-3.00;100.00;103123.38;5036283;28;20404;-76
2024/03/07 04:42:18;;;;;;;8.93;5.15;;;;;;;-2.99;100.00;103119.84;5018800;28;20200;-72
2024/03/07 04:44:44;;;;;;;12.02;5.93;;;;;;;-3.01;100.00;103116.41;5036218;28;20489;-73
2024/03/07 04:47:10;;;;;;;12.65;6.30;;;;;;;-3.03;100.00;103114.75;5037246;28;20500;-72
2024/03/07 04:49:36;;;;;;;9.23;6.00;;;;;;;-3.04;100.00;103119.16;5036634;28;20033;-73
2024/03/07 04:52:03;;;;;;;9.90;6.32;;;;;;;-3.06;100.00;103115.69;5036986;28;20458;-73
2024/03/07 04:54:30;;;;;;;12.63;6.97;;;;;;;-3.14;100.00;103104.59;5037586;28;20108;-72
2024/03/07 04:56:57;;;;;;;14.65;7.78;;;;;;;-3.05;100.00;103114.78;5037146;28;20061;-72
2024/03/07 04:59:23;;;;;;;15.35;7.85;;;;;;;-3.05;100.00;103119.19;5035199;28;20058;-73
2024/03/07 05:01:49;;;;;;;18.15;9.23;;;;;;;-3.05;100.00;103114.78;5034578;28;20381;-71
2024/03/07 05:04:16;;;;;;;17.95;9.07;;;;;;;-3.01;100.00;103121.69;5036362;28;20060;-71
2024/03/07 05:06:43;;;;;;;17.40;8.93;;;;;;;-3.02;100.00;103121.72;5035024;28;20028;-71
2024/03/07 05:09:13;;;;;;;14.73;8.48;;;;;;;-3.03;100.00;103127.91;5040257;28;20059;-72
2024/03/07 05:11:39;;;;;;;18.80;8.80;;;;;;;-3.05;100.00;103120.03;5040093;28;20025;-71
2024/03/07 05:14:04;;;;;;;17.80;9.20;;;;;;;-3.08;100.00;103118.41;5039528;28;20041;-72
2024/03/07 05:16:33;;;;;;;14.60;8.98;;;;;;;-3.08;100.00;103120.16;5040050;28;20022;-77
2024/03/07 05:18:59;;;;;;;16.48;8.88;;;;;;;-3.06;100.00;103123.59;5037683;28;20027;-75
2024/03/07 05:24:03;;;;;;;19.58;9.63;;;;;;;-3.05;100.00;103124.47;5041755;28;20061;-74
2024/03/07 05:26:33;;;;;;;16.05;8.73;;;;;;;-3.18;100.00;103114.38;5043039;28;20432;-71
2024/03/07 05:29:05;;;;;;;13.43;8.02;;;;;;;-3.11;100.00;103122.91;5023428;28;20036;-68
2024/03/07 05:31:36;;;;;;;21.20;9.57;;;;;;;-3.14;100.00;103136.19;5036533;28;20427;-72
2024/03/07 05:34:08;;;;;;;14.95;9.32;;;;;;;-3.18;100.00;103129.28;5008582;28;20359;-71
2024/03/07 05:36:35;;;;;;;18.80;8.35;;;;;;;-3.19;100.00;103130.22;5042084;28;20037;-70
2024/03/07 05:39:08;;;;;;;16.42;8.82;;;;;;;-3.32;100.00;103112.19;5041666;28;20112;-74
2024/03/07 05:41:34;;;;;;;15.25;8.85;;;;;;;-3.23;100.00;103134.72;5042594;28;20025;-70
2024/03/07 05:44:00;;;;;;;17.25;9.63;;;;;;;-3.31;100.00;103131.50;5041773;28;20065;-69
2024/03/07 05:46:25;;;;;;;15.27;9.30;;;;;;;-3.51;100.00;103103.19;5040761;28;20029;-71
2024/03/07 05:48:55;;;;;;;18.88;10.30;;;;;;;-3.36;100.00;103130.78;5041593;28;20034;-71
2024/03/07 05:51:22;;;;;;;20.38;10.05;;;;;;;-3.39;100.00;103129.09;5041204;28;20032;-73
2024/03/07 05:53:47;;;;;;;14.23;9.07;;;;;;;-3.25;100.00;103135.69;5042213;28;20045;-72
2024/03/07 05:56:14;;;;;;;17.70;9.30;;;;;;;-3.21;100.00;103145.19;5041397;28;20033;-74
2024/03/07 05:58:40;;;;;;;18.20;9.73;;;;;;;-3.19;100.00;103141.59;5042811;28;20049;-73
2024/03/07 06:01:05;;;;;;;17.20;8.80;;;;;;;-3.34;100.00;103111.41;5060027;28;20059;-72
2024/03/07 06:03:31;;;;;;;21.23;9.50;;;;;;;-3.20;100.00;103129.34;5061077;28;20031;-71
2024/03/07 06:05:56;;;;;;;17.65;8.65;;;;;;;-3.10;100.00;103148.34;5027055;28;20036;-71
2024/03/07 06:08:21;;;;;;;14.45;8.27;;;;;;;-3.09;100.00;103150.03;5060672;28;20037;-74
2024/03/07 06:10:47;;;;;;;13.15;8.48;;;;;;;-3.18;100.00;103124.03;5060347;28;20052;-70
2024/03/07 06:13:15;;;;;;;16.70;9.18;;;;;;;-3.07;100.00;103140.31;5060349;28;20400;-70
2024/03/07 06:15:43;;;;;;;13.20;8.07;;;;;;;-3.04;100.00;103142.00;5060159;28;20120;-70
2024/03/07 06:18:10;;;;;;;18.67;7.82;;;;;;;-2.97;100.00;103143.50;5060140;28;20100;-71
2024/03/07 06:20:37;;;;;;;16.10;9.27;;;;;;;-2.94;100.00;103143.41;5060997;28;20304;-72
2024/03/07 06:23:05;;;;;;;19.88;9.77;;;;;;;-3.02;100.00;103127.84;5059156;28;20029;-70
2024/03/07 06:25:36;;;;;;;16.88;9.02;;;;;;;-2.91;100.00;103151.19;5057642;28;20033;-71
2024/03/07 06:28:09;;;;;;;17.25;8.90;;;;;;;-2.86;100.00;103143.97;5058706;28;20044;-71
2024/03/07 06:30:42;;;;;;;15.57;9.20;;;;;;;-2.84;100.00;103148.28;5055067;28;20086;-72
2024/03/07 06:33:09;;;;;;;14.77;8.30;;;;;;;-2.86;100.00;103158.00;5060313;28;20116;-71
2024/03/07 06:35:36;;;;;;;14.85;8.07;;;;;;;-2.82;100.00;103158.75;5060554;28;20450;-70
2024/03/07 06:38:03;;;;;;;12.20;7.95;;;;;;;-2.88;100.00;103138.78;5060395;28;20024;-70
2024/03/07 06:40:29;;;;;;;17.40;8.75;;;;;;;-2.90;100.00;103122.16;5061542;28;20112;-70
2024/03/07 06:42:55;;;;;;;15.77;8.35;;;;;;;-2.69;100.00;103152.13;5059559;28;20025;-70
2024/03/07 06:45:21;;;;;;;15.88;9.05;;;;;;;-2.72;100.00;103138.19;5061260;28;20083;-71
2024/03/07 06:47:47;;;;;;;22.08;9.77;;;;;;;-2.61;100.00;103154.50;5060540;28;20096;-71
2024/03/07 06:50:19;;;;;;;17.10;9.30;;;;;;;-2.59;100.00;103142.09;5059550;28;20111;-70
2024/03/07 06:52:46;;;;;;;20.63;9.55;;;;;;;-2.52;100.00;103148.88;5027931;28;20098;-73
2024/03/07 06:55:16;;;;;;;13.93;8.73;;;;;;;-2.41;100.00;103151.97;5059378;28;20504;-71
2024/03/07 06:57:43;;;;;;;18.77;9.65;;;;;;;-2.34;100.00;103149.13;5059590;28;20029;-71
2024/03/07 07:00:10;;;;;;;18.58;9.95;;;;;;;-2.52;100.00;103121.66;5059362;28;20099;-71
2024/03/07 07:02:40;;;;;;;22.85;9.43;;;;;;;-2.36;100.00;103136.84;5059330;28;20435;-70
2024/03/07 07:05:11;;;;;;;21.35;9.68;;;;;;;-2.36;100.00;103114.88;5060449;28;20031;-70
2024/03/07 07:07:38;;;;;;;19.50;9.82;;;;;;;-2.32;100.00;103124.38;5058919;28;20505;-72
2024/03/07 07:10:08;;;;;;;17.45;9.75;;;;;;;-2.06;100.00;103149.78;5060237;28;20043;-72
2024/03/07 07:12:34;;;;;;;23.15;9.80;;;;;;;-2.00;100.00;103152.16;5059260;28;20017;-72
2024/03/07 07:15:00;;;;;;;22.23;10.68;;;;;;;-2.05;100.00;103135.69;5059171;28;20479;-73
2024/03/07 07:17:28;;;;;;;20.08;10.32;;;;;;;-1.93;100.00;103152.78;5059646;28;20055;-74
2024/03/07 07:19:55;;;;;;;17.75;10.02;;;;;;;-1.87;100.00;103149.91;5060980;28;20029;-72
2024/03/07 07:22:21;;;;;;;19.15;10.15;;;;;;;-1.73;100.00;103152.00;5059863;28;20043;-73
2024/03/07 07:24:46;;;;;;;19.35;9.75;;;;;;;-1.69;100.00;103143.03;5026623;28;20029;-73
2024/03/07 07:27:12;;;;;;;22.63;10.20;;;;;;;-1.65;100.00;103144.66;5043179;28;20060;-72
2024/03/07 07:29:37;;;;;;;20.05;9.90;;;;;;;-1.51;100.00;103142.28;5060568;28;20036;-72
2024/03/07 07:32:03;;;;;;;27.25;10.75;;;;;;;-1.40;100.00;103147.13;5060015;28;20510;-72
2024/03/07 07:34:29;;;;;;;17.80;9.85;;;;;;;-1.28;100.00;103148.41;5059173;28;20033;-72
2024/03/07 07:36:55;;;;;;;19.67;10.20;;;;;;;-1.32;100.00;103130.97;5061085;28;20029;-71
2024/03/07 07:39:21;;;;;;;17.00;9.07;;;;;;;-1.05;100.00;103150.94;5059707;28;20043;-72
2024/03/07 07:41:47;;;;;;;16.23;8.50;;;;;;;-1.09;100.00;103128.22;5060253;28;20029;-72
2024/03/07 07:44:13;;;;;;;17.00;9.20;;;;;;;-0.86;100.00;103144.81;5060385;28;20116;-74
2024/03/07 07:46:40;;;;;;;20.35;9.45;;;;;;;-0.80;100.00;103142.78;5059179;28;20051;-73
2024/03/07 07:49:06;;;;;;;15.75;8.90;;;;;;;-0.73;100.00;103144.25;5060378;28;20044;-73
2024/03/07 07:51:31;;;;;;;15.07;8.05;;;;;;;-0.64;100.00;103144.75;5043412;28;20049;-71
2024/03/07 07:53:57;;;;;;;15.02;7.85;;;;;;;-0.57;100.00;103146.19;5059132;28;20041;-72
2024/03/07 07:56:24;;;;;;;22.10;7.95;;;;;;;-0.54;100.00;103136.31;5060450;28;20033;-73
2024/03/07 07:58:49;;;;;;;14.18;8.05;;;;;;;-0.44;100.00;103142.06;5042998;28;20049;-72
2024/03/07 08:01:16;;;;;;;15.57;8.43;;;;;;;-0.30;100.00;103144.06;5058254;28;20029;-74
2024/03/07 08:03:43;;;;;;;16.85;8.05;;;;;;;-0.25;100.00;103139.41;5060201;28;20048;-73
2024/03/07 08:06:09;;;;;;;14.32;8.25;;;;;;;-0.16;100.00;103138.16;5060709;28;20040;-72
2024/03/07 08:08:35;;;;;;;15.25;7.03;;;;;;;-0.08;100.00;103139.47;5060642;28;20025;-75
2024/03/07 08:11:01;;;;;;;16.88;9.15;;;;;;;-0.30;100.00;103092.03;5059320;28;20088;-73
2024/03/07 08:13:26;;;;;;;18.25;8.98;;;;;;;0.03;100.00;103148.69;5058254;28;20400;-73
2024/03/07 08:15:53;;;;;;;18.27;9.25;;;;;;;0.07;100.00;103129.13;5059704;28;20173;-75
2024/03/07 08:18:20;;;;;;;17.77;9.63;;;;;;;0.07;100.00;103126.47;5059464;28;20021;-73
2024/03/07 08:20:45;;;;;;;18.75;9.63;;;;;;;0.19;100.00;103139.94;5058243;28;20528;-74
2024/03/07 08:23:12;;;;;;;16.45;9.45;;;;;;;0.26;100.00;103139.66;5041032;28;20063;-72
2024/03/07 08:25:42;;;;;;;18.08;9.32;;;;;;;0.29;100.00;103139.50;5041878;28;20021;-72
2024/03/07 08:28:08;;;;;;;19.77;8.50;;;;;;;0.31;100.00;103138.50;5063313;28;20036;-73
2024/03/07 08:30:34;;;;;;;16.23;8.75;;;;;;;0.37;100.00;103138.22;5064299;28;20029;-72
2024/03/07 08:33:02;;;;;;;18.05;9.38;;;;;;;0.38;100.00;103142.56;5059519;28;20019;-72
2024/03/07 08:35:29;;;;;;;18.80;9.68;;;;;;;0.37;100.00;103132.91;5065008;28;20044;-74
2024/03/07 08:37:55;;;;;;;15.10;8.80;;;;;;;0.47;100.00;103142.13;5062769;28;20039;-71
2024/03/07 08:40:30;;;;;;;18.77;8.98;;;;;;;0.49;100.00;103128.78;5059274;28;20033;-72
2024/03/07 08:42:57;;;;;;;16.50;7.53;;;;;;;0.64;100.00;103140.44;5062401;28;20025;-72
2024/03/07 08:45:23;;;;;;;18.55;7.82;;;;;;;0.63;100.00;103136.03;5063545;28;20021;-72
2024/03/07 08:47:50;;;;;;;13.98;7.18;;;;;;;0.68;100.00;103136.69;5061148;28;20032;-73
2024/03/07 08:50:17;;;;;;;19.02;6.90;;;;;;;0.65;100.00;103131.53;5064010;28;20028;-72
2024/03/07 08:52:50;;;;;;;12.95;7.15;;;;;;;0.76;100.00;103133.63;5061903;28;20040;-72
2024/03/07 08:55:20;;;;;;;18.27;7.07;;;;;;;0.57;100.00;103088.69;5061280;28;20472;-72
2024/03/07 08:57:48;;;;;;;14.27;6.70;;;;;;;0.89;100.00;103127.66;5060630;28;20037;-72
2024/03/07 09:00:24;;;;;;;11.80;6.45;;;;;;;0.74;100.00;103104.56;5062704;28;20036;-74
2024/03/07 09:02:57;;;;;;;11.55;6.53;;;;;;;0.97;100.00;103124.59;5061013;28;20017;-72
2024/03/07 09:05:23;;;;;;;12.98;6.63;;;;;;;0.98;100.00;103121.00;5062535;28;20021;-72
2024/03/07 09:07:49;;;;;;;10.45;5.95;;;;;;;1.07;100.00;103124.97;5061636;28;20035;-73
2024/03/07 09:10:15;;;;;;;8.50;5.68;;;;;;;1.20;100.00;103119.88;5062734;28;20017;-72
2024/03/07 09:12:41;;;;;;;10.65;6.45;;;;;;;1.27;100.00;103126.56;5062805;28;20028;-71
2024/03/07 09:15:07;;;;;;;15.95;6.30;;;;;;;1.14;100.00;103094.53;5061637;28;20490;-71
2024/03/07 09:17:32;;;;;;;12.30;6.07;;;;;;;1.34;100.00;103115.56;5060785;28;20044;-71
2024/03/07 09:19:58;;;;;;;10.27;4.72;;;;;;;1.26;100.00;103109.81;5060262;28;20025;-71
2024/03/07 09:22:24;;;;;;;6.65;4.18;;;;;;;1.34;100.00;103117.34;5059582;28;20063;-72
2024/03/07 09:24:49;;;;;;;7.93;4.65;;;;;;;1.32;100.00;103112.09;5059315;28;20025;-73
2024/03/07 09:27:15;;;;;;;8.30;4.43;;;;;;;1.32;100.00;103116.56;5059775;28;20064;-73
2024/03/07 09:29:40;;;;;;;7.82;4.32;;;;;;;1.11;100.00;103077.00;5060585;28;20040;-73
2024/03/07 09:32:08;;;;;;;12.60;4.68;;;;;;;1.28;100.00;103107.91;5062081;28;20033;-74
2024/03/07 09:34:35;;;;;;;7.43;4.22;;;;;;;1.27;100.00;103102.72;5062295;28;20044;-71
2024/03/07 09:37:01;;;;;;;6.22;4.22;;;;;;;1.30;100.00;103107.84;5044703;28;20396;-72
2024/03/07 09:39:27;;;;;;;7.93;4.07;;;;;;;1.31;100.00;103106.91;5060233;28;20024;-71
2024/03/07 09:41:55;;;;;;;8.15;3.53;;;;;;;1.33;100.00;103108.53;5061108;28;20039;-75
2024/03/07 09:44:24;;;;;;;6.90;3.78;;;;;;;1.36;100.00;103094.25;5060445;28;20433;-72
2024/03/07 09:46:52;;;;;;;6.93;4.00;;;;;;;1.30;100.00;103076.88;5060514;28;20396;-75
2024/03/07 09:49:18;;;;;;;6.18;3.65;;;;;;;1.54;100.00;103100.34;5044217;28;20040;-72
2024/03/07 09:51:45;;;;;;;5.80;3.70;;;;;;;1.56;100.00;103093.19;5060362;28;20175;-71
2024/03/07 09:54:10;;;;;;;8.43;4.05;;;;;;;1.64;100.00;103089.16;5057821;28;20029;-72
2024/03/07 09:56:37;;;;;;;9.43;3.65;;;;;;;1.67;100.00;103093.44;5041673;28;20049;-72
2024/03/07 09:59:05;;;;;;;8.15;3.90;;;;;;;1.72;100.00;103093.16;5060858;28;20389;-74
2024/03/07 10:01:36;;;;;;;6.88;3.83;;;;;;;1.56;100.00;103061.34;5060699;28;20451;-71
2024/03/07 10:04:14;;;;;;;5.72;3.42;;;;;;;1.75;100.00;103095.66;5062011;28;20086;-72
2024/03/07 10:06:46;;;;;;;11.55;4.32;;;;;;;1.78;100.00;103098.13;5062358;28;20033;-71
2024/03/07 10:09:15;;;;;;;10.93;4.00;;;;;;;1.80;100.00;103099.78;5068546;28;20372;-71
2024/03/07 10:11:41;;;;;;;7.10;3.67;;;;;;;1.69;100.00;103077.41;5066410;28;20426;-73
2024/03/07 10:14:07;;;;;;;8.00;4.45;;;;;;;1.84;100.00;103090.69;5048230;28;20036;-71
2024/03/07 10:16:33;;;;;;;8.50;4.85;;;;;;;1.96;100.00;103094.47;5059026;28;20032;-71
2024/03/07 10:19:00;;;;;;;6.45;3.90;;;;;;;2.08;100.00;103099.06;5060862;28;20071;-74
2024/03/07 10:21:26;;;;;;;7.97;3.50;;;;;;;2.20;100.00;103097.50;5061435;28;20040;-70
2024/03/07 10:24:06;;;;;;;7.78;2.95;;;;;;;2.31;100.00;103091.56;5026684;28;20021;-71
2024/03/07 10:26:34;;;;;;;7.82;4.05;;;;;;;2.27;100.00;103092.69;5062083;28;20021;-71
2024/03/07 10:29:00;;;;;;;10.48;4.47;;;;;;;2.29;100.00;103094.34;5061718;28;20036;-70
2024/03/07 10:31:32;;;;;;;7.47;3.90;;;;;;;2.29;100.00;103086.38;5062975;28;20021;-72
2024/03/07 10:34:02;;;;;;;8.93;4.47;;;;;;;2.28;100.00;103094.41;5060250;28;20033;-71
2024/03/07 10:36:30;;;;;;;8.30;4.25;;;;;;;2.30;100.00;103090.72;5062114;28;20033;-71
2024/03/07 10:39:13;;;;;;;8.98;4.60;;;;;;;2.34;100.00;103086.09;5063621;28;20067;-71
2024/03/07 10:41:46;;;;;;;9.40;4.88;;;;;;;2.41;100.00;103086.59;5062722;28;20505;-72
2024/03/07 10:44:21;;;;;;;7.65;4.80;;;;;;;2.46;100.00;103081.88;5063555;28;20112;-71
2024/03/07 10:46:53;;;;;;;9.38;4.75;;;;;;;2.48;100.00;103074.63;5063240;28;20025;-71
2024/03/07 10:49:23;;;;;;;7.65;4.22;;;;;;;2.46;100.00;103074.75;5063629;28;20040;-72
2024/03/07 10:52:01;;;;;;;9.77;4.70;;;;;;;2.47;100.00;103071.13;5060926;28;20024;-71
2024/03/07 10:55:05;;;;;;;12.30;4.55;;;;;;;2.52;100.00;103071.72;5057624;28;20029;-71
2024/03/07 10:57:46;;;;;;;6.60;3.28;;;;;;;2.56;100.00;103067.09;5067420;28;20029;-70
2024/03/07 11:00:30;;;;;;;4.53;2.58;;;;;;;2.63;100.00;103065.78;5068890;28;20075;-72
2024/03/07 11:02:56;;;;;;;4.55;3.05;;;;;;;2.65;100.00;103063.88;5068478;28;20033;-70
2024/03/07 11:05:26;;;;;;;10.93;2.65;;;;;;;2.68;100.00;103058.38;5066597;28;20096;-71
2024/03/07 11:07:52;;;;;;;5.57;3.00;;;;;;;2.71;100.00;103055.50;5067835;28;20025;-70
2024/03/07 11:10:20;;;;;;;6.13;2.85;;;;;;;2.77;100.00;103057.81;5065097;28;20085;-70
2024/03/07 11:12:50;;;;;;;4.22;2.45;;;;;;;2.76;100.00;103049.94;5061296;28;20059;-71
2024/03/07 11:15:20;;;;;;;5.43;2.95;;;;;;;2.75;100.00;103038.47;5060779;28;20028;-72
2024/03/07 11:17:47;;;;;;;6.30;2.75;;;;;;;2.70;100.00;103032.56;5062223;28;20056;-71